Tres Hombres — 9LD2206 — position and weather

sailwx.info

Track history (hours):
 
Tides and Currents Weather Stations Pressure Air Temp Water Temp Dewpoint Dewpoint Depression Visibility Wind Speed Wind Dir Waves Ship Positions

Tres Hombres

Ship's website: http://www.zeilendehandelsvaart.nl/

Last reported at 2014-Oct-19 17:33 UTC. Time now 2014-Oct-20 08:15 UTC.
Position N 57°21' W 001°41'.

Length 32 m.

Type: Sailing vessel. MMSI: 667905000.

Date/timePositionNaut miles runAvg speedWind from/ knotsBaromVisibWave heightAir tempDewpointWater temp
2014-Oct-19 17:33N 57°21' W 001°41'7 7.2
2014-Oct-19 16:33N 57°28' W 001°44'7 7.1
2014-Oct-19 15:33N 57°35' W 001°46'7 6.6
2014-Oct-19 14:33N 57°40' W 001°54'5 5.0
2014-Oct-19 13:33N 57°42' W 002°02'0 0.1
2014-Oct-19 08:26N 57°42' W 002°03'4 4.9
2014-Oct-19 07:33N 57°42' W 001°55'6 6.5
2014-Oct-19 06:33N 57°38' W 001°45'8 8.1
2014-Oct-19 05:33N 57°35' W 001°31'160 7.3
2014-Oct-18 07:44N 57°47' E 003°27'88 7.9
2014-Oct-17 20:33N 58°51' E 005°21'5 4.9
2014-Oct-17 19:33N 58°56' E 005°24'4 4.3
2014-Oct-17 18:32N 58°60' E 005°29'3 3.1
2014-Oct-17 17:33N 59°02' E 005°33'1 0.9
2014-Oct-17 16:32N 59°03' E 005°34'1 0.5
2014-Oct-17 15:26N 59°03' E 005°34'0 0.3
2014-Oct-17 14:32N 59°03' E 005°35'0 0.4
2014-Oct-17 13:31N 59°03' E 005°35'3 3.5
2014-Oct-17 12:33N 59°01' E 005°40'3 2.8
2014-Oct-17 11:33N 58°59' E 005°44'1 0.6
2014-Oct-17 10:32N 58°58' E 005°44'0 0.0
2014-Oct-17 09:32N 58°58' E 005°44'0 0.0
2014-Oct-17 08:32N 58°58' E 005°44'0 0.0
2014-Oct-17 07:32N 58°58' E 005°44'0 0.0
2014-Oct-17 06:32N 58°58' E 005°44'0 0.0
2014-Oct-17 05:29N 58°58' E 005°44'0 0.0
2014-Oct-17 04:32N 58°58' E 005°44'0 0.0
2014-Oct-17 03:32N 58°58' E 005°44'0 0.0
2014-Oct-17 02:32N 58°58' E 005°44'0 0.0
2014-Oct-17 01:32N 58°58' E 005°44'0 0.0
2014-Oct-17 00:32N 58°58' E 005°44'0 0.0
2014-Oct-16 23:32N 58°58' E 005°44'0 0.0
2014-Oct-16 22:32N 58°58' E 005°44'0 0.0
2014-Oct-16 21:32N 58°58' E 005°44'0 0.0
2014-Oct-16 20:32N 58°58' E 005°44'0 0.0
2014-Oct-16 19:32N 58°58' E 005°44'0 0.0
2014-Oct-16 18:32N 58°58' E 005°44'0 0.0
2014-Oct-16 17:32N 58°58' E 005°44'0 0.0
2014-Oct-16 16:32N 58°58' E 005°44'0 0.0
2014-Oct-16 15:32N 58°58' E 005°44'0 0.0
2014-Oct-16 14:32N 58°58' E 005°44'0 0.0
2014-Oct-16 13:32N 58°58' E 005°44'0 0.0
2014-Oct-16 12:32N 58°58' E 005°44'0 0.0
2014-Oct-16 11:32N 58°58' E 005°44'0 0.0
2014-Oct-16 10:32N 58°58' E 005°44'0 0.0
2014-Oct-16 09:32N 58°58' E 005°44'0 0.0
2014-Oct-16 08:32N 58°58' E 005°44'0 0.0
2014-Oct-16 07:32N 58°58' E 005°44'0 0.0
2014-Oct-16 06:32N 58°58' E 005°44'0 0.0
2014-Oct-16 05:29N 58°58' E 005°44'0 0.0
2014-Oct-16 04:32N 58°58' E 005°44'0 0.0
2014-Oct-16 03:32N 58°58' E 005°44'0 0.0
2014-Oct-16 02:32N 58°58' E 005°44'0 0.0
2014-Oct-16 01:32N 58°58' E 005°44'0 0.0
2014-Oct-16 00:32N 58°58' E 005°44'0 0.0
2014-Oct-15 23:32N 58°58' E 005°44'0 0.0
2014-Oct-15 22:32N 58°58' E 005°44'0 0.0
2014-Oct-15 21:32N 58°58' E 005°44'0 0.0
2014-Oct-15 20:32N 58°58' E 005°44'0 0.0
2014-Oct-15 19:32N 58°58' E 005°44'0 0.0
2014-Oct-15 18:32N 58°58' E 005°44'0 0.0
2014-Oct-15 17:32N 58°58' E 005°44'0 0.0
2014-Oct-15 16:32N 58°58' E 005°44'0 0.0
2014-Oct-15 15:32N 58°58' E 005°44'0 0.0
2014-Oct-15 14:32N 58°58' E 005°44'0 0.0
2014-Oct-15 13:32N 58°58' E 005°44'0 0.0
2014-Oct-15 12:32N 58°58' E 005°44'0 0.0
2014-Oct-15 11:32N 58°58' E 005°44'0 0.0
2014-Oct-15 10:32N 58°58' E 005°44'0 0.0
2014-Oct-15 09:32N 58°58' E 005°44'0 0.0
2014-Oct-15 08:32N 58°58' E 005°44'0 0.0
2014-Oct-15 07:32N 58°58' E 005°44'0 0.0
2014-Oct-15 06:32N 58°58' E 005°44'0 0.0
2014-Oct-15 05:32N 58°58' E 005°44'0 0.0
2014-Oct-15 04:32N 58°58' E 005°44'0 0.0
2014-Oct-15 03:32N 58°58' E 005°44'0 0.0
2014-Oct-15 02:32N 58°58' E 005°44'0 0.0
2014-Oct-15 01:32N 58°58' E 005°44'0 0.0
2014-Oct-15 00:32N 58°58' E 005°44'0 0.0
2014-Oct-14 23:32N 58°58' E 005°44'0 0.0
2014-Oct-14 22:32N 58°58' E 005°44'0 0.0
2014-Oct-14 21:32N 58°58' E 005°44'0 0.0
2014-Oct-14 20:32N 58°58' E 005°44'0 0.0
2014-Oct-14 19:32N 58°58' E 005°44'0 0.0
2014-Oct-14 18:32N 58°58' E 005°44'0 0.0
2014-Oct-14 17:32N 58°58' E 005°44'0 0.0
2014-Oct-14 16:32N 58°58' E 005°44'0 0.0
2014-Oct-14 15:32N 58°58' E 005°44'2 1.6
2014-Oct-14 14:32N 58°60' E 005°42'2 2.0
2014-Oct-14 13:33N 59°01' E 005°39'3 3.2
2014-Oct-14 12:31N 59°02' E 005°33'5 9.6
2014-Oct-14 12:00N 59°00' E 005°24'2 3.7 340 / 51013.6 11.8 6.213.6
2014-Oct-14 11:29N 59°01' E 005°27'2 2.1
2014-Oct-14 10:33N 59°00' E 005°24'2 1.6
2014-Oct-14 09:32N 59°01' E 005°21'1 1.5
2014-Oct-14 08:33N 58°59' E 005°21'3 3.1
2014-Oct-14 07:30N 58°56' E 005°23'2 1.8
2014-Oct-14 06:32N 58°55' E 005°24'2 2.1
2014-Oct-14 05:32N 58°52' E 005°25'1 0.9
2014-Oct-14 04:33N 58°53' E 005°23'3 2.7
2014-Oct-14 03:33N 58°54' E 005°18'1 1.1
2014-Oct-14 02:33N 58°53' E 005°16'3 2.8
2014-Oct-14 01:33N 58°51' E 005°18'3 2.9
2014-Oct-14 00:31N 58°48' E 005°20'611.5
2014-Oct-14 00:00N 58°42' E 005°18'12 2.1 050 / 61012.7 0.510.1 8.214.3
2014-Oct-13 18:00N 58°30' E 005°24'10 4.1 360 / 101013.2 0.512.0 6.214.3
2014-Oct-13 15:28N 58°30' E 005°44'16 6.3
2014-Oct-13 13:00N 58°22' E 005°18'7 7.5
2014-Oct-13 12:00N 58°18' E 005°06'6 1.1 360 / 81014.110.8 12.5 6.813.2
2014-Oct-13 07:00N 58°15' E 005°15'25 3.6
2014-Oct-13 00:00N 58°00' E 004°36'23 6.1 310 / 101013.927.0 12.110.312.5
2014-Oct-12 20:10N 57°37' E 004°30'10 2.7
2014-Oct-12 16:27N 57°27' E 004°29'57 6.4
2014-Oct-12 07:29N 56°30' E 004°21'60 4.5
2014-Oct-11 18:00N 55°30' E 004°12'22 2.7 250 / 51009.9 0.514.212.215.0
2014-Oct-11 09:50N 55°08' E 004°13'132 4.6
2014-Oct-10 05:11N 52°58' E 004°46'0 0.0
2014-Oct-10 04:23N 52°58' E 004°46'0 0.0
2014-Oct-10 03:11N 52°58' E 004°46'0 0.0
2014-Oct-10 02:14N 52°58' E 004°46'0 0.0
2014-Oct-10 00:29N 52°58' E 004°46'0 0.0
2014-Oct-09 22:05N 52°58' E 004°46'0 0.0
2014-Oct-09 18:26N 52°58' E 004°46'  
Track history (hours):
 
Tides and Currents Weather Stations Pressure Air Temp Water Temp Dewpoint Dewpoint Depression Visibility Wind Speed Wind Dir Waves Ship Positions

Tres Hombres

Ship's website: http://www.zeilendehandelsvaart.nl/

Last reported at 2014-Oct-19 17:33 UTC. Time now 2014-Oct-20 08:15 UTC.
Position N 57°21' W 001°41'.

Length 32 m.

Type: Sailing vessel. MMSI: 667905000.

Date/timePositionNaut miles runAvg speedWind from/ knotsBaromVisibWave heightAir tempDewpointWater temp
2014-Oct-19 17:33N 57°21' W 001°41'7 7.2
2014-Oct-19 16:33N 57°28' W 001°44'7 7.1
2014-Oct-19 15:33N 57°35' W 001°46'7 6.6
2014-Oct-19 14:33N 57°40' W 001°54'5 5.0
2014-Oct-19 13:33N 57°42' W 002°02'0 0.1
2014-Oct-19 08:26N 57°42' W 002°03'4 4.9
2014-Oct-19 07:33N 57°42' W 001°55'6 6.5
2014-Oct-19 06:33N 57°38' W 001°45'8 8.1
2014-Oct-19 05:33N 57°35' W 001°31'160 7.3
2014-Oct-18 07:44N 57°47' E 003°27'88 7.9
2014-Oct-17 20:33N 58°51' E 005°21'5 4.9
2014-Oct-17 19:33N 58°56' E 005°24'4 4.3
2014-Oct-17 18:32N 58°60' E 005°29'3 3.1
2014-Oct-17 17:33N 59°02' E 005°33'1 0.9
2014-Oct-17 16:32N 59°03' E 005°34'1 0.5
2014-Oct-17 15:26N 59°03' E 005°34'0 0.3
2014-Oct-17 14:32N 59°03' E 005°35'0 0.4
2014-Oct-17 13:31N 59°03' E 005°35'3 3.5
2014-Oct-17 12:33N 59°01' E 005°40'3 2.8
2014-Oct-17 11:33N 58°59' E 005°44'1 0.6
2014-Oct-17 10:32N 58°58' E 005°44'0 0.0
2014-Oct-17 09:32N 58°58' E 005°44'0 0.0
2014-Oct-17 08:32N 58°58' E 005°44'0 0.0
2014-Oct-17 07:32N 58°58' E 005°44'0 0.0
2014-Oct-17 06:32N 58°58' E 005°44'0 0.0
2014-Oct-17 05:29N 58°58' E 005°44'0 0.0
2014-Oct-17 04:32N 58°58' E 005°44'0 0.0
2014-Oct-17 03:32N 58°58' E 005°44'0 0.0
2014-Oct-17 02:32N 58°58' E 005°44'0 0.0
2014-Oct-17 01:32N 58°58' E 005°44'0 0.0
2014-Oct-17 00:32N 58°58' E 005°44'0 0.0
2014-Oct-16 23:32N 58°58' E 005°44'0 0.0
2014-Oct-16 22:32N 58°58' E 005°44'0 0.0
2014-Oct-16 21:32N 58°58' E 005°44'0 0.0
2014-Oct-16 20:32N 58°58' E 005°44'0 0.0
2014-Oct-16 19:32N 58°58' E 005°44'0 0.0
2014-Oct-16 18:32N 58°58' E 005°44'0 0.0
2014-Oct-16 17:32N 58°58' E 005°44'0 0.0
2014-Oct-16 16:32N 58°58' E 005°44'0 0.0
2014-Oct-16 15:32N 58°58' E 005°44'0 0.0
2014-Oct-16 14:32N 58°58' E 005°44'0 0.0
2014-Oct-16 13:32N 58°58' E 005°44'0 0.0
2014-Oct-16 12:32N 58°58' E 005°44'0 0.0
2014-Oct-16 11:32N 58°58' E 005°44'0 0.0
2014-Oct-16 10:32N 58°58' E 005°44'0 0.0
2014-Oct-16 09:32N 58°58' E 005°44'0 0.0
2014-Oct-16 08:32N 58°58' E 005°44'0 0.0
2014-Oct-16 07:32N 58°58' E 005°44'0 0.0
2014-Oct-16 06:32N 58°58' E 005°44'0 0.0
2014-Oct-16 05:29N 58°58' E 005°44'0 0.0
2014-Oct-16 04:32N 58°58' E 005°44'0 0.0
2014-Oct-16 03:32N 58°58' E 005°44'0 0.0
2014-Oct-16 02:32N 58°58' E 005°44'0 0.0
2014-Oct-16 01:32N 58°58' E 005°44'0 0.0
2014-Oct-16 00:32N 58°58' E 005°44'0 0.0
2014-Oct-15 23:32N 58°58' E 005°44'0 0.0
2014-Oct-15 22:32N 58°58' E 005°44'0 0.0
2014-Oct-15 21:32N 58°58' E 005°44'0 0.0
2014-Oct-15 20:32N 58°58' E 005°44'0 0.0
2014-Oct-15 19:32N 58°58' E 005°44'0 0.0
2014-Oct-15 18:32N 58°58' E 005°44'0 0.0
2014-Oct-15 17:32N 58°58' E 005°44'0 0.0
2014-Oct-15 16:32N 58°58' E 005°44'0 0.0
2014-Oct-15 15:32N 58°58' E 005°44'0 0.0
2014-Oct-15 14:32N 58°58' E 005°44'0 0.0
2014-Oct-15 13:32N 58°58' E 005°44'0 0.0
2014-Oct-15 12:32N 58°58' E 005°44'0 0.0
2014-Oct-15 11:32N 58°58' E 005°44'0 0.0
2014-Oct-15 10:32N 58°58' E 005°44'0 0.0
2014-Oct-15 09:32N 58°58' E 005°44'0 0.0
2014-Oct-15 08:32N 58°58' E 005°44'0 0.0
2014-Oct-15 07:32N 58°58' E 005°44'0 0.0
2014-Oct-15 06:32N 58°58' E 005°44'0 0.0
2014-Oct-15 05:32N 58°58' E 005°44'0 0.0
2014-Oct-15 04:32N 58°58' E 005°44'0 0.0
2014-Oct-15 03:32N 58°58' E 005°44'0 0.0
2014-Oct-15 02:32N 58°58' E 005°44'0 0.0
2014-Oct-15 01:32N 58°58' E 005°44'0 0.0
2014-Oct-15 00:32N 58°58' E 005°44'0 0.0
2014-Oct-14 23:32N 58°58' E 005°44'0 0.0
2014-Oct-14 22:32N 58°58' E 005°44'0 0.0
2014-Oct-14 21:32N 58°58' E 005°44'0 0.0
2014-Oct-14 20:32N 58°58' E 005°44'0 0.0
2014-Oct-14 19:32N 58°58' E 005°44'0 0.0
2014-Oct-14 18:32N 58°58' E 005°44'0 0.0
2014-Oct-14 17:32N 58°58' E 005°44'0 0.0
2014-Oct-14 16:32N 58°58' E 005°44'0 0.0
2014-Oct-14 15:32N 58°58' E 005°44'2 1.6
2014-Oct-14 14:32N 58°60' E 005°42'2 2.0
2014-Oct-14 13:33N 59°01' E 005°39'3 3.2
2014-Oct-14 12:31N 59°02' E 005°33'5 9.6
2014-Oct-14 12:00N 59°00' E 005°24'2 3.7 340 / 51013.6 11.8 6.213.6
2014-Oct-14 11:29N 59°01' E 005°27'2 2.1
2014-Oct-14 10:33N 59°00' E 005°24'2 1.6
2014-Oct-14 09:32N 59°01' E 005°21'1 1.5
2014-Oct-14 08:33N 58°59' E 005°21'3 3.1
2014-Oct-14 07:30N 58°56' E 005°23'2 1.8
2014-Oct-14 06:32N 58°55' E 005°24'2 2.1
2014-Oct-14 05:32N 58°52' E 005°25'1 0.9
2014-Oct-14 04:33N 58°53' E 005°23'3 2.7
2014-Oct-14 03:33N 58°54' E 005°18'1 1.1
2014-Oct-14 02:33N 58°53' E 005°16'3 2.8
2014-Oct-14 01:33N 58°51' E 005°18'3 2.9
2014-Oct-14 00:31N 58°48' E 005°20'611.5
2014-Oct-14 00:00N 58°42' E 005°18'12 2.1 050 / 61012.7 0.510.1 8.214.3
2014-Oct-13 18:00N 58°30' E 005°24'10 4.1 360 / 101013.2 0.512.0 6.214.3
2014-Oct-13 15:28N 58°30' E 005°44'16 6.3
2014-Oct-13 13:00N 58°22' E 005°18'7 7.5
2014-Oct-13 12:00N 58°18' E 005°06'6 1.1 360 / 81014.110.8 12.5 6.813.2
2014-Oct-13 07:00N 58°15' E 005°15'25 3.6
2014-Oct-13 00:00N 58°00' E 004°36'23 6.1 310 / 101013.927.0 12.110.312.5
2014-Oct-12 20:10N 57°37' E 004°30'10 2.7
2014-Oct-12 16:27N 57°27' E 004°29'57 6.4
2014-Oct-12 07:29N 56°30' E 004°21'60 4.5
2014-Oct-11 18:00N 55°30' E 004°12'22 2.7 250 / 51009.9 0.514.212.215.0
2014-Oct-11 09:50N 55°08' E 004°13'132 4.6
2014-Oct-10 05:11N 52°58' E 004°46'0 0.0
2014-Oct-10 04:23N 52°58' E 004°46'0 0.0
2014-Oct-10 03:11N 52°58' E 004°46'0 0.0
2014-Oct-10 02:14N 52°58' E 004°46'0 0.0
2014-Oct-10 00:29N 52°58' E 004°46'0 0.0
2014-Oct-09 22:05N 52°58' E 004°46'0 0.0
2014-Oct-09 18:26N 52°58' E 004°46'  

Dump ship's entire track history